Time,TemperatureF,DewpointF,PressureIn,WindDirection,WindDirectionDegrees,WindSpeedMPH,WindSpeedGustMPH,Humidity,HourlyPrecipIn,Conditions,Clouds,dailyrainin,SoftwareType,DateUTC
2013-10-02 00:01:00,53.7,52.0,29.87,WNW,287,0.0,-999.0,94,-99.99,,,0.00,weatherlink.com 1.10,2013-10-02 04:01:00,
2013-10-02 00:17:00,53.7,52.0,29.88,WNW,287,0.0,-999.0,95,-99.99,,,0.00,weatherlink.com 1.10,2013-10-02 04:17:00,
2013-10-02 00:32:00,53.4,52.0,29.88,WNW,287,0.0,-999.0,95,-99.99,,,0.00,weatherlink.com 1.10,2013-10-02 04:32:00,
2013-10-02 00:47:00,52.5,51.0,29.88,WNW,287,0.0,-999.0,95,-99.99,,,0.00,weatherlink.com 1.10,2013-10-02 04:47:00,
2013-10-02 01:02:00,51.5,50.0,29.89,WNW,287,0.0,-999.0,95,-99.99,,,0.00,weatherlink.com 1.10,2013-10-02 05:02:00,
2013-10-02 01:17:00,50.7,49.0,29.89,WNW,287,0.0,-999.0,95,-99.99,,,0.00,weatherlink.com 1.10,2013-10-02 05:17:00,
2013-10-02 01:32:00,51.0,50.0,29.89,WNW,287,0.0,-999.0,96,-99.99,,,0.00,weatherlink.com 1.10,2013-10-02 05:32:00,
2013-10-02 01:47:00,51.9,51.0,29.90,WNW,287,0.0,-999.0,96,-99.99,,,0.00,weatherlink.com 1.10,2013-10-02 05:47:00,
2013-10-02 02:02:00,52.7,52.0,29.90,WNW,287,0.0,-999.0,96,-99.99,,,0.00,weatherlink.com 1.10,2013-10-02 06:02:00,
2013-10-02 02:17:00,50.7,49.0,29.91,WNW,287,0.0,-999.0,95,-99.99,,,0.00,weatherlink.com 1.10,2013-10-02 06:17:00,
2013-10-02 02:32:00,50.3,49.0,29.91,WNW,287,0.0,-999.0,96,-99.99,,,0.00,weatherlink.com 1.10,2013-10-02 06:32:00,
2013-10-02 02:47:00,49.6,49.0,29.92,WNW,287,0.0,-999.0,96,-99.99,,,0.00,weatherlink.com 1.10,2013-10-02 06:47:00,
2013-10-02 03:02:00,49.8,49.0,29.92,WNW,287,0.0,-999.0,96,-99.99,,,0.00,weatherlink.com 1.10,2013-10-02 07:02:00,
2013-10-02 03:17:00,49.6,49.0,29.92,WNW,287,0.0,-999.0,96,-99.99,,,0.00,weatherlink.com 1.10,2013-10-02 07:17:00,
2013-10-02 03:32:00,51.8,51.0,29.92,West,280,0.0,-999.0,97,-99.99,,,0.00,weatherlink.com 1.10,2013-10-02 07:32:00,
2013-10-02 03:47:00,50.2,49.0,29.92,West,281,0.0,-999.0,96,-99.99,,,0.00,weatherlink.com 1.10,2013-10-02 07:47:00,
2013-10-02 04:02:00,49.2,48.0,29.93,West,281,0.0,-999.0,96,-99.99,,,0.00,weatherlink.com 1.10,2013-10-02 08:02:00,
2013-10-02 04:17:00,47.4,46.0,29.94,West,281,0.0,-999.0,96,-99.99,,,0.00,weatherlink.com 1.10,2013-10-02 08:17:00,
2013-10-02 04:32:00,46.8,46.0,29.94,West,281,0.0,-999.0,96,-99.99,,,0.00,weatherlink.com 1.10,2013-10-02 08:32:00,
2013-10-02 04:47:00,47.5,47.0,29.94,West,280,0.0,-999.0,96,-99.99,,,0.00,weatherlink.com 1.10,2013-10-02 08:47:00,
2013-10-02 05:02:00,46.6,46.0,29.95,West,281,0.0,-999.0,96,-99.99,,,0.01,weatherlink.com 1.10,2013-10-02 09:02:00,
2013-10-02 05:17:00,45.6,45.0,29.96,West,280,0.0,-999.0,96,-99.99,,,0.01,weatherlink.com 1.10,2013-10-02 09:17:00,
2013-10-02 05:32:00,46.2,45.0,29.96,West,280,0.0,-999.0,96,-99.99,,,0.01,weatherlink.com 1.10,2013-10-02 09:32:00,
2013-10-02 05:47:00,46.9,46.0,29.97,West,280,0.0,-999.0,97,-99.99,,,0.01,weatherlink.com 1.10,2013-10-02 09:47:00,
2013-10-02 06:02:00,47.3,46.0,29.98,West,280,0.0,-999.0,96,-99.99,,,0.01,weatherlink.com 1.10,2013-10-02 10:02:00,
2013-10-02 06:17:00,47.4,46.0,29.98,West,280,2.0,-999.0,96,-99.99,,,0.01,weatherlink.com 1.10,2013-10-02 10:17:00,
2013-10-02 06:32:00,46.6,46.0,29.98,West,280,0.0,-999.0,96,-99.99,,,0.01,weatherlink.com 1.10,2013-10-02 10:32:00,
2013-10-02 06:47:00,46.7,46.0,29.98,West,281,0.0,-999.0,96,-99.99,,,0.01,weatherlink.com 1.10,2013-10-02 10:47:00,
2013-10-02 07:02:00,45.4,44.0,30.00,West,281,0.0,-999.0,96,-99.99,,,0.01,weatherlink.com 1.10,2013-10-02 11:02:00,
2013-10-02 07:17:00,44.5,44.0,30.00,West,280,1.0,-999.0,96,-99.99,,,0.01,weatherlink.com 1.10,2013-10-02 11:17:00,
2013-10-02 07:32:00,44.6,44.0,30.00,West,281,0.0,-999.0,96,-99.99,,,0.01,weatherlink.com 1.10,2013-10-02 11:32:00,
2013-10-02 07:47:00,45.2,44.0,30.01,West,281,1.0,-999.0,96,-99.99,,,0.01,weatherlink.com 1.10,2013-10-02 11:47:00,
2013-10-02 08:03:00,47.4,46.0,30.01,West,281,0.0,-999.0,96,-99.99,,,0.01,weatherlink.com 1.10,2013-10-02 12:03:00,
2013-10-02 08:18:00,48.1,47.0,30.02,West,281,0.0,-999.0,96,-99.99,,,0.01,weatherlink.com 1.10,2013-10-02 12:18:00,
2013-10-02 08:33:00,49.5,48.0,30.02,West,281,0.0,-999.0,95,-99.99,,,0.01,weatherlink.com 1.10,2013-10-02 12:33:00,
2013-10-02 08:48:00,50.7,49.0,30.02,West,276,3.0,-999.0,94,-99.99,,,0.01,weatherlink.com 1.10,2013-10-02 12:48:00,
2013-10-02 09:03:00,52.1,50.0,30.02,West,261,1.0,-999.0,91,-99.99,,,0.01,weatherlink.com 1.10,2013-10-02 13:03:00,
2013-10-02 09:18:00,53.7,51.0,30.03,WSW,251,3.0,-999.0,90,-99.99,,,0.01,weatherlink.com 1.10,2013-10-02 13:18:00,
2013-10-02 09:33:00,56.2,52.0,30.04,West,275,6.0,-999.0,87,-99.99,,,0.01,weatherlink.com 1.10,2013-10-02 13:33:00,
2013-10-02 09:48:00,58.2,52.0,30.04,NW,308,5.0,-999.0,80,-99.99,,,0.01,weatherlink.com 1.10,2013-10-02 13:48:00,
2013-10-02 10:03:00,59.8,53.0,30.04,West,281,2.0,-999.0,77,-99.99,,,0.01,weatherlink.com 1.10,2013-10-02 14:03:00,
2013-10-02 10:18:00,61.6,53.0,30.05,NW,307,6.0,-999.0,74,-99.99,,,0.01,weatherlink.com 1.10,2013-10-02 14:18:00,
2013-10-02 10:33:00,62.6,52.0,30.05,West,272,5.0,-999.0,69,-99.99,,,0.01,weatherlink.com 1.10,2013-10-02 14:33:00,
2013-10-02 10:48:00,63.2,49.0,30.05,WNW,290,10.0,-999.0,60,-99.99,,,0.01,weatherlink.com 1.10,2013-10-02 14:48:00,
2013-10-02 11:03:00,63.7,49.0,30.06,West,279,9.0,-999.0,59,-99.99,,,0.01,weatherlink.com 1.10,2013-10-02 15:03:00,
2013-10-02 11:18:00,64.0,48.0,30.07,West,270,14.0,-999.0,57,-99.99,,,0.01,weatherlink.com 1.10,2013-10-02 15:18:00,
2013-10-02 11:33:00,64.2,48.0,30.07,WNW,292,13.0,-999.0,55,-99.99,,,0.01,weatherlink.com 1.10,2013-10-02 15:33:00,
2013-10-02 11:48:00,64.7,49.0,30.07,NW,315,13.0,-999.0,57,-99.99,,,0.01,weatherlink.com 1.10,2013-10-02 15:48:00,
2013-10-02 12:03:00,65.3,48.0,30.07,NW,321,14.0,-999.0,54,-99.99,,,0.01,weatherlink.com 1.10,2013-10-02 16:03:00,
2013-10-02 12:18:00,65.0,47.0,30.07,NW,311,10.0,-999.0,52,-99.99,,,0.01,weatherlink.com 1.10,2013-10-02 16:18:00,
2013-10-02 12:33:00,65.8,46.0,30.07,NW,309,9.0,-999.0,50,-99.99,,,0.01,weatherlink.com 1.10,2013-10-02 16:33:00,
2013-10-02 12:48:00,66.1,47.0,30.08,WNW,300,13.0,-999.0,50,-99.99,,,0.01,weatherlink.com 1.10,2013-10-02 16:48:00,
2013-10-02 13:03:00,66.4,46.0,30.08,WNW,291,6.0,-999.0,49,-99.99,,,0.01,weatherlink.com 1.10,2013-10-02 17:03:00,
2013-10-02 13:18:00,66.4,45.0,30.08,NW,324,6.0,-999.0,47,-99.99,,,0.01,weatherlink.com 1.10,2013-10-02 17:18:00,
2013-10-02 13:33:00,66.5,45.0,30.09,WNW,290,18.0,-999.0,46,-99.99,,,0.01,weatherlink.com 1.10,2013-10-02 17:33:00,
2013-10-02 13:48:00,66.8,46.0,30.08,WNW,300,13.0,-999.0,48,-99.99,,,0.01,weatherlink.com 1.10,2013-10-02 17:48:00,
2013-10-02 14:03:00,66.7,45.0,30.09,West,271,14.0,-999.0,46,-99.99,,,0.01,weatherlink.com 1.10,2013-10-02 18:03:00,
2013-10-02 14:18:00,66.7,45.0,30.09,WNW,294,11.0,-999.0,46,-99.99,,,0.01,weatherlink.com 1.10,2013-10-02 18:18:00,
2013-10-02 14:33:00,66.9,45.0,30.09,West,272,8.0,-999.0,46,-99.99,,,0.01,weatherlink.com 1.10,2013-10-02 18:33:00,
2013-10-02 14:49:00,67.3,46.0,30.09,WNW,300,11.0,-999.0,46,-99.99,,,0.01,weatherlink.com 1.10,2013-10-02 18:49:00,
2013-10-02 15:04:00,67.0,44.0,30.09,WNW,290,14.0,-999.0,43,-99.99,,,0.01,weatherlink.com 1.10,2013-10-02 19:04:00,
2013-10-02 15:19:00,66.9,44.0,30.09,WNW,299,10.0,-999.0,43,-99.99,,,0.01,weatherlink.com 1.10,2013-10-02 19:19:00,
2013-10-02 15:33:00,67.1,45.0,30.09,NW,324,10.0,-999.0,45,-99.99,,,0.01,weatherlink.com 1.10,2013-10-02 19:33:00,
2013-10-02 15:49:00,66.7,44.0,30.09,WNW,291,14.0,-999.0,44,-99.99,,,0.01,weatherlink.com 1.10,2013-10-02 19:49:00,
2013-10-02 16:04:00,66.3,44.0,30.10,NW,304,4.0,-999.0,45,-99.99,,,0.01,weatherlink.com 1.10,2013-10-02 20:04:00,
2013-10-02 16:19:00,65.6,44.0,30.10,WNW,302,15.0,-999.0,46,-99.99,,,0.01,weatherlink.com 1.10,2013-10-02 20:19:00,
2013-10-02 16:34:00,66.2,45.0,30.11,NW,315,10.0,-999.0,47,-99.99,,,0.01,weatherlink.com 1.10,2013-10-02 20:34:00,
2013-10-02 16:49:00,66.1,44.0,30.11,NW,313,13.0,-999.0,45,-99.99,,,0.01,weatherlink.com 1.10,2013-10-02 20:49:00,
2013-10-02 17:05:00,66.3,46.0,30.11,WNW,284,11.0,-999.0,49,-99.99,,,0.01,weatherlink.com 1.10,2013-10-02 21:05:00,
2013-10-02 17:19:00,65.7,45.0,30.11,NW,319,6.0,-999.0,48,-99.99,,,0.01,weatherlink.com 1.10,2013-10-02 21:19:00,
2013-10-02 17:34:00,65.4,44.0,30.11,WNW,298,3.0,-999.0,47,-99.99,,,0.01,weatherlink.com 1.10,2013-10-02 21:34:00,
2013-10-02 17:49:00,64.9,45.0,30.11,WNW,299,1.0,-999.0,48,-99.99,,,0.01,weatherlink.com 1.10,2013-10-02 21:49:00,
2013-10-02 18:04:00,64.4,43.0,30.11,NW,315,3.0,-999.0,46,-99.99,,,0.01,weatherlink.com 1.10,2013-10-02 22:04:00,
2013-10-02 18:19:00,64.0,44.0,30.11,NW,317,2.0,-999.0,48,-99.99,,,0.01,weatherlink.com 1.10,2013-10-02 22:19:00,
2013-10-02 18:34:00,62.7,45.0,30.11,NW,323,0.0,-999.0,53,-99.99,,,0.01,weatherlink.com 1.10,2013-10-02 22:34:00,
2013-10-02 18:49:00,59.9,45.0,30.11,NW,323,0.0,-999.0,59,-99.99,,,0.01,weatherlink.com 1.10,2013-10-02 22:49:00,
2013-10-02 19:04:00,58.5,44.0,30.12,NW,323,0.0,-999.0,60,-99.99,,,0.01,weatherlink.com 1.10,2013-10-02 23:04:00,
2013-10-02 19:19:00,56.2,46.0,30.12,NW,323,0.0,-999.0,68,-99.99,,,0.01,weatherlink.com 1.10,2013-10-02 23:19:00,
2013-10-02 19:34:00,52.7,45.0,30.13,NW,323,3.0,-999.0,75,-99.99,,,0.01,weatherlink.com 1.10,2013-10-02 23:34:00,
2013-10-02 19:49:00,50.8,44.0,30.12,NW,322,0.0,-999.0,78,-99.99,,,0.01,weatherlink.com 1.10,2013-10-02 23:49:00,
2013-10-02 20:04:00,49.3,44.0,30.12,NW,322,0.0,-999.0,81,-99.99,,,0.01,weatherlink.com 1.10,2013-10-03 00:04:00,
2013-10-02 20:19:00,47.8,43.0,30.12,NW,323,0.0,-999.0,84,-99.99,,,0.01,weatherlink.com 1.10,2013-10-03 00:19:00,
2013-10-02 20:34:00,46.4,43.0,30.13,NW,323,0.0,-999.0,86,-99.99,,,0.01,weatherlink.com 1.10,2013-10-03 00:34:00,
2013-10-02 20:49:00,45.2,42.0,30.13,NW,323,0.0,-999.0,88,-99.99,,,0.01,weatherlink.com 1.10,2013-10-03 00:49:00,
2013-10-02 21:04:00,45.0,42.0,30.13,NW,323,0.0,-999.0,89,-99.99,,,0.01,weatherlink.com 1.10,2013-10-03 01:04:00,
2013-10-02 21:19:00,44.5,42.0,30.13,NW,323,0.0,-999.0,90,-99.99,,,0.01,weatherlink.com 1.10,2013-10-03 01:19:00,
2013-10-02 21:34:00,43.7,41.0,30.13,NW,323,0.0,-999.0,91,-99.99,,,0.01,weatherlink.com 1.10,2013-10-03 01:34:00,
2013-10-02 21:49:00,42.7,40.0,30.14,NW,323,0.0,-999.0,91,-99.99,,,0.01,weatherlink.com 1.10,2013-10-03 01:49:00,
2013-10-02 22:04:00,43.7,42.0,30.14,NW,323,0.0,-999.0,92,-99.99,,,0.01,weatherlink.com 1.10,2013-10-03 02:04:00,
2013-10-02 22:19:00,43.7,42.0,30.14,NW,323,0.0,-999.0,92,-99.99,,,0.01,weatherlink.com 1.10,2013-10-03 02:19:00,
2013-10-02 22:34:00,43.2,41.0,30.14,NW,323,0.0,-999.0,93,-99.99,,,0.01,weatherlink.com 1.10,2013-10-03 02:34:00,
2013-10-02 22:49:00,45.0,43.0,30.15,NW,322,0.0,-999.0,94,-99.99,,,0.01,weatherlink.com 1.10,2013-10-03 02:49:00,
2013-10-02 23:04:00,45.6,44.0,30.15,NW,322,0.0,-999.0,94,-99.99,,,0.01,weatherlink.com 1.10,2013-10-03 03:04:00,
2013-10-02 23:19:00,45.9,44.0,30.15,NW,323,0.0,-999.0,94,-99.99,,,0.01,weatherlink.com 1.10,2013-10-03 03:19:00,
2013-10-02 23:34:00,46.2,45.0,30.15,NW,323,0.0,-999.0,94,-99.99,,,0.01,weatherlink.com 1.10,2013-10-03 03:34:00,
2013-10-02 23:49:00,46.0,44.0,30.16,NW,323,0.0,-999.0,94,-99.99,,,0.01,weatherlink.com 1.10,2013-10-03 03:49:00,